Time;durP1;ratioP1;P1;durP2;ratioP2;P2;SDS_P1;SDS_P2;PMS_P1;PMS_P2;Temp;Humidity;BMP_temperature;BMP_pressure;BME280_temperature;BME280_humidity;BME280_pressure;Samples;Min_cycle;Max_cycle;Signal;HPM_P1;HPM_P2
2022/12/02 00:02:30;;;;;;;45.83;27.17;;;4.50;1.00;;;;;;4973133;28;20467;-58
2022/12/02 00:05:20;;;;;;;48.23;27.97;;;4.40;1.00;;;;;;4980697;28;20452;-57
2022/12/02 00:07:47;;;;;;;48.13;26.60;;;4.30;1.00;;;;;;4981021;28;20969;-58
2022/12/02 00:10:33;;;;;;;48.90;26.77;;;4.20;1.00;;;;;;4988361;28;21023;-57
2022/12/02 00:13:14;;;;;;;51.57;27.97;;;4.30;1.00;;;;;;4992080;28;20455;-58
2022/12/02 00:15:43;;;;;;;47.07;28.27;;;4.30;1.00;;;;;;4962534;28;20549;-57
2022/12/02 00:18:13;;;;;;;48.57;28.10;;;4.20;1.00;;;;;;4974196;28;20497;-57
2022/12/02 00:20:39;;;;;;;46.93;25.50;;;4.30;1.00;;;;;;4977887;28;21675;-58
2022/12/02 00:23:05;;;;;;;54.20;29.17;;;4.30;1.00;;;;;;4975886;28;20453;-58
2022/12/02 00:25:32;;;;;;;49.87;27.73;;;4.30;1.00;;;;;;4978095;28;20449;-58
2022/12/02 00:27:58;;;;;;;52.00;28.17;;;4.30;1.00;;;;;;4981218;28;20483;-57
2022/12/02 00:30:24;;;;;;;47.73;28.00;;;4.30;1.00;;;;;;4989914;28;20463;-57
2022/12/02 00:32:49;;;;;;;48.83;28.43;;;4.30;1.00;;;;;;4980055;28;20586;-58
2022/12/02 00:35:16;;;;;;;49.37;26.77;;;4.40;1.00;;;;;;4977410;28;20457;-59
2022/12/02 00:37:41;;;;;;;45.97;26.43;;;4.30;1.00;;;;;;4984176;28;20196;-57
2022/12/02 00:40:08;;;;;;;50.47;26.83;;;4.40;1.00;;;;;;4988962;28;20452;-57
2022/12/02 00:42:34;;;;;;;50.57;27.27;;;4.40;1.00;;;;;;4973685;28;20758;-59
2022/12/02 00:47:44;;;;;;;44.97;27.83;;;4.50;1.00;;;;;;4986941;28;20291;-57
2022/12/02 00:50:10;;;;;;;45.77;27.27;;;4.50;1.00;;;;;;4989706;28;22105;-58
2022/12/02 00:52:36;;;;;;;44.10;26.57;;;4.50;1.00;;;;;;4986558;28;20205;-58
2022/12/02 00:55:02;;;;;;;49.03;27.53;;;4.40;1.00;;;;;;4980234;28;20456;-57
2022/12/02 00:57:27;;;;;;;40.57;25.70;;;4.50;1.00;;;;;;4983778;28;20464;-56
2022/12/02 00:59:53;;;;;;;43.13;26.57;;;4.50;1.00;;;;;;4987123;28;20191;-57
2022/12/02 01:02:19;;;;;;;49.03;27.60;;;4.40;1.00;;;;;;4981412;28;20208;-57
2022/12/02 01:04:44;;;;;;;48.07;27.87;;;4.30;1.00;;;;;;4983648;28;20256;-57
2022/12/02 01:07:10;;;;;;;51.97;29.33;;;4.30;1.00;;;;;;4967357;28;20233;-57
2022/12/02 01:09:36;;;;;;;49.87;27.87;;;4.20;1.00;;;;;;4980290;28;20816;-56
2022/12/02 01:12:01;;;;;;;47.53;25.77;;;4.20;1.00;;;;;;4985388;28;20255;-57
2022/12/02 01:14:27;;;;;;;46.93;27.00;;;4.20;1.00;;;;;;4981056;28;20226;-57
2022/12/02 01:16:53;;;;;;;47.33;27.90;;;4.20;1.00;;;;;;4981055;28;20208;-57
2022/12/02 01:19:18;;;;;;;47.57;27.40;;;4.30;1.00;;;;;;4988865;28;20565;-58
2022/12/02 01:21:44;;;;;;;45.33;26.03;;;4.30;1.00;;;;;;4985545;28;20182;-58
2022/12/02 01:24:10;;;;;;;47.03;26.57;;;4.40;1.00;;;;;;4985181;28;20186;-58
2022/12/02 01:26:36;;;;;;;43.97;24.77;;;4.30;1.00;;;;;;4986103;28;20191;-57
2022/12/02 01:29:01;;;;;;;44.03;24.60;;;4.40;1.00;;;;;;4982990;28;20451;-58
2022/12/02 01:31:27;;;;;;;45.23;25.20;;;4.40;1.00;;;;;;4987189;28;20222;-57
2022/12/02 01:33:52;;;;;;;48.50;28.60;;;4.30;1.00;;;;;;4977122;28;20202;-59
2022/12/02 01:36:18;;;;;;;43.90;25.83;;;4.30;1.00;;;;;;4983183;28;20193;-57
2022/12/02 01:38:44;;;;;;;47.53;26.13;;;4.30;1.00;;;;;;4985060;28;20275;-57
2022/12/02 01:41:09;;;;;;;49.77;28.43;;;4.30;1.00;;;;;;4983007;28;20646;-56
2022/12/02 01:43:35;;;;;;;39.10;23.50;;;4.40;1.00;;;;;;4981068;28;20190;-57
2022/12/02 01:46:01;;;;;;;47.23;26.67;;;4.40;1.00;;;;;;4990620;28;20697;-57
2022/12/02 01:48:28;;;;;;;44.90;25.83;;;4.50;1.00;;;;;;4985085;28;20656;-58
2022/12/02 01:50:54;;;;;;;45.10;27.10;;;4.60;1.00;;;;;;4988215;28;20460;-57
2022/12/02 01:53:20;;;;;;;46.57;25.57;;;4.60;1.00;;;;;;4986635;28;20509;-58
2022/12/02 01:55:46;;;;;;;38.83;23.70;;;4.70;1.00;;;;;;4980080;28;20814;-57
2022/12/02 01:58:12;;;;;;;46.23;25.63;;;4.60;1.00;;;;;;4979808;28;20519;-57
2022/12/02 02:00:39;;;;;;;44.73;27.50;;;4.60;1.00;;;;;;4981837;28;20289;-57
2022/12/02 02:03:04;;;;;;;44.93;26.23;;;4.60;1.00;;;;;;4980266;28;20456;-58
2022/12/02 02:05:32;;;;;;;42.23;25.73;;;4.60;1.00;;;;;;4992038;28;20503;-58
2022/12/02 02:08:05;;;;;;;43.17;24.40;;;4.60;1.00;;;;;;4985856;28;20449;-59
2022/12/02 02:10:32;;;;;;;37.90;24.43;;;4.70;1.00;;;;;;4986293;28;20494;-56
2022/12/02 02:12:58;;;;;;;39.13;22.77;;;4.70;1.00;;;;;;4977485;28;20471;-57
2022/12/02 02:15:24;;;;;;;42.80;26.20;;;4.70;1.00;;;;;;4978716;28;20799;-57
2022/12/02 02:17:52;;;;;;;41.63;24.60;;;4.70;1.00;;;;;;4980343;28;20603;-58
2022/12/02 02:20:21;;;;;;;41.40;24.50;;;4.80;1.00;;;;;;4982744;28;20794;-57
2022/12/02 02:23:05;;;;;;;35.20;23.13;;;4.80;1.00;;;;;;4982417;28;20457;-59
2022/12/02 02:25:32;;;;;;;37.90;21.93;;;4.80;1.00;;;;;;4992131;28;20444;-58
2022/12/02 02:28:00;;;;;;;35.50;22.80;;;4.70;1.00;;;;;;4976885;28;20457;-57
2022/12/02 02:30:31;;;;;;;37.63;22.63;;;4.80;1.00;;;;;;4984611;28;20878;-58
2022/12/02 02:32:58;;;;;;;32.03;21.00;;;4.90;1.00;;;;;;4979330;28;20987;-57
2022/12/02 02:35:23;;;;;;;37.43;22.90;;;4.80;1.00;;;;;;4976976;28;20455;-57
2022/12/02 02:37:51;;;;;;;37.57;22.37;;;4.70;1.00;;;;;;4979734;28;20472;-58
2022/12/02 02:40:18;;;;;;;39.73;21.13;;;4.60;1.00;;;;;;4980293;28;20188;-57
2022/12/02 02:42:46;;;;;;;33.10;20.30;;;4.50;1.00;;;;;;4979792;28;20443;-58
2022/12/02 02:45:12;;;;;;;40.73;23.37;;;4.40;1.00;;;;;;4983243;28;20450;-57
2022/12/02 02:47:38;;;;;;;34.40;20.20;;;4.40;1.00;;;;;;4987459;28;20476;-58
2022/12/02 02:50:05;;;;;;;31.70;19.60;;;4.30;1.00;;;;;;4985041;28;20419;-60
2022/12/02 02:52:31;;;;;;;32.27;21.57;;;4.30;1.00;;;;;;4985985;28;20443;-57
2022/12/02 02:54:56;;;;;;;37.63;23.97;;;4.20;1.00;;;;;;4981326;28;20440;-57
2022/12/02 02:57:22;;;;;;;38.00;22.57;;;4.10;1.00;;;;;;4983972;28;20212;-56
2022/12/02 02:59:52;;;;;;;35.63;21.70;;;4.10;1.00;;;;;;4987243;28;20215;-57
2022/12/02 03:02:18;;;;;;;32.13;21.37;;;4.20;1.00;;;;;;4981112;28;20216;-57
2022/12/02 03:04:43;;;;;;;37.57;22.47;;;4.20;1.00;;;;;;4980030;28;20433;-57
2022/12/02 03:07:09;;;;;;;37.17;23.13;;;4.20;1.00;;;;;;4985275;28;20826;-58
2022/12/02 03:09:35;;;;;;;36.80;21.77;;;4.30;1.00;;;;;;4985056;28;20193;-58
2022/12/02 03:12:01;;;;;;;32.07;20.60;;;4.40;1.00;;;;;;4994560;28;20841;-57
2022/12/02 03:14:28;;;;;;;31.37;21.43;;;4.40;1.00;;;;;;4983353;28;20201;-57
2022/12/02 03:16:54;;;;;;;30.73;20.17;;;4.40;1.00;;;;;;4972570;28;20462;-57
2022/12/02 03:19:20;;;;;;;31.87;21.10;;;4.50;1.00;;;;;;4970920;28;21013;-58
2022/12/02 03:21:46;;;;;;;34.07;21.07;;;4.50;1.00;;;;;;4976867;28;20448;-58
2022/12/02 03:24:12;;;;;;;32.63;20.67;;;4.60;1.00;;;;;;4984637;28;20292;-58
2022/12/02 03:26:39;;;;;;;32.07;20.67;;;4.70;1.00;;;;;;4972172;28;20448;-57
2022/12/02 03:29:06;;;;;;;29.57;18.30;;;4.60;1.00;;;;;;4981103;28;21825;-57
2022/12/02 03:31:33;;;;;;;31.43;20.47;;;4.50;1.00;;;;;;4981177;28;20510;-57
2022/12/02 03:33:58;;;;;;;27.30;18.83;;;4.40;1.00;;;;;;4982164;28;20455;-57
2022/12/02 03:36:25;;;;;;;32.00;21.50;;;4.40;1.00;;;;;;4986573;28;20980;-58
2022/12/02 03:38:51;;;;;;;27.63;19.50;;;4.50;1.00;;;;;;4986613;28;20236;-58
2022/12/02 03:41:18;;;;;;;32.63;21.13;;;4.50;1.00;;;;;;4976990;28;20445;-57
2022/12/02 03:43:43;;;;;;;33.60;22.23;;;4.50;1.00;;;;;;4980867;28;20472;-56
2022/12/02 03:46:10;;;;;;;29.57;20.10;;;4.50;1.00;;;;;;4985368;28;20950;-57
2022/12/02 03:48:37;;;;;;;29.53;20.07;;;4.50;1.00;;;;;;4989006;28;20196;-56
2022/12/02 03:51:03;;;;;;;24.93;17.97;;;4.50;1.00;;;;;;4991305;28;20452;-57
2022/12/02 03:53:29;;;;;;;30.17;20.87;;;4.50;1.00;;;;;;4987875;28;20902;-58
2022/12/02 03:55:55;;;;;;;38.37;22.00;;;4.40;1.00;;;;;;4982603;28;20208;-57
2022/12/02 03:58:43;;;;;;;30.77;20.10;;;4.40;1.00;;;;;;4983442;28;20479;-57
2022/12/02 04:01:08;;;;;;;31.00;20.20;;;4.40;1.00;;;;;;4989369;28;20476;-57
2022/12/02 04:03:34;;;;;;;30.63;21.07;;;4.50;1.00;;;;;;4986073;28;20480;-57
2022/12/02 04:05:59;;;;;;;33.03;21.40;;;4.50;1.00;;;;;;4989510;28;21009;-57
2022/12/02 04:08:25;;;;;;;29.20;19.70;;;4.50;1.00;;;;;;4988383;28;20220;-57
2022/12/02 04:10:51;;;;;;;35.03;23.50;;;4.40;1.00;;;;;;4989031;28;20201;-57
2022/12/02 04:13:16;;;;;;;33.20;20.27;;;4.40;1.00;;;;;;4975416;28;20555;-57
2022/12/02 04:15:42;;;;;;;29.97;18.90;;;4.40;1.00;;;;;;4982390;28;20180;-57
2022/12/02 04:18:08;;;;;;;33.97;21.30;;;4.40;1.00;;;;;;4986980;28;20210;-59
2022/12/02 04:20:33;;;;;;;31.27;20.67;;;4.40;1.00;;;;;;4992203;28;20248;-57
2022/12/02 04:22:59;;;;;;;34.50;21.40;;;4.40;1.00;;;;;;4974811;28;20183;-57
2022/12/02 04:25:24;;;;;;;34.90;21.60;;;4.40;1.00;;;;;;4987295;28;20198;-60
2022/12/02 04:27:50;;;;;;;28.63;18.97;;;4.40;1.00;;;;;;4984198;28;20226;-57
2022/12/02 04:30:16;;;;;;;27.77;19.50;;;4.40;1.00;;;;;;4986928;28;20199;-57
2022/12/02 04:32:41;;;;;;;31.77;19.60;;;4.40;1.00;;;;;;4982040;28;20222;-57
2022/12/02 04:35:07;;;;;;;31.10;20.13;;;4.40;1.00;;;;;;4974849;28;20192;-57
2022/12/02 04:37:32;;;;;;;30.17;19.30;;;4.30;1.00;;;;;;4979093;28;20204;-57
2022/12/02 04:39:58;;;;;;;30.77;19.37;;;4.30;1.00;;;;;;4990237;28;20277;-57
2022/12/02 04:42:24;;;;;;;31.67;19.37;;;4.30;1.00;;;;;;4987156;28;20283;-57
2022/12/02 04:44:49;;;;;;;29.30;19.73;;;4.30;1.00;;;;;;4981729;28;20196;-57
2022/12/02 04:47:15;;;;;;;29.50;19.87;;;4.20;1.00;;;;;;4985424;28;20228;-57
2022/12/02 04:49:40;;;;;;;27.47;18.90;;;4.10;1.00;;;;;;4989470;28;20194;-57
2022/12/02 04:52:06;;;;;;;31.03;19.10;;;4.10;1.00;;;;;;4986951;28;20858;-56
2022/12/02 04:54:32;;;;;;;27.83;17.53;;;4.10;1.00;;;;;;4987801;28;20201;-57
2022/12/02 04:56:57;;;;;;;26.37;16.33;;;4.00;1.00;;;;;;4982662;28;20776;-57
2022/12/02 04:59:23;;;;;;;33.83;20.10;;;3.90;1.00;;;;;;4988093;28;20217;-57
2022/12/02 05:01:49;;;;;;;30.23;19.37;;;3.80;1.00;;;;;;4984525;28;20234;-56
2022/12/02 05:04:14;;;;;;;33.73;19.80;;;3.80;1.00;;;;;;4997461;28;20201;-56
2022/12/02 05:06:40;;;;;;;30.70;19.60;;;3.90;1.00;;;;;;4992278;28;20243;-57
2022/12/02 05:09:05;;;;;;;34.87;22.37;;;3.90;1.00;;;;;;4984159;28;20197;-55
2022/12/02 05:11:31;;;;;;;32.53;20.03;;;4.00;1.00;;;;;;4984185;28;20213;-56
2022/12/02 05:13:56;;;;;;;29.20;17.80;;;4.00;1.00;;;;;;4984568;28;20659;-56
2022/12/02 05:16:22;;;;;;;27.43;18.07;;;4.00;1.00;;;;;;4983287;28;20208;-56
2022/12/02 05:18:47;;;;;;;26.70;17.43;;;4.10;1.00;;;;;;4982325;28;20222;-57
2022/12/02 05:21:13;;;;;;;29.50;18.37;;;4.10;1.00;;;;;;4986831;28;20280;-58
2022/12/02 05:23:39;;;;;;;30.00;18.50;;;4.10;1.00;;;;;;4984859;28;20192;-56
2022/12/02 05:26:05;;;;;;;28.10;18.60;;;4.00;1.00;;;;;;4987847;28;20539;-57
2022/12/02 05:28:30;;;;;;;30.83;20.63;;;4.00;1.00;;;;;;4990174;28;20202;-56
2022/12/02 05:30:56;;;;;;;27.77;19.20;;;4.00;1.00;;;;;;4971302;28;20475;-56
2022/12/02 05:33:21;;;;;;;29.83;19.70;;;4.00;1.00;;;;;;4988579;28;20251;-55
2022/12/02 05:35:47;;;;;;;25.90;17.60;;;4.10;1.00;;;;;;4989019;28;20192;-55
2022/12/02 05:38:13;;;;;;;25.93;18.00;;;4.00;1.00;;;;;;4983008;28;20247;-56
2022/12/02 05:40:38;;;;;;;27.00;17.67;;;3.90;1.00;;;;;;4986224;28;20193;-57
2022/12/02 05:43:19;;;;;;;27.00;16.80;;;3.80;1.00;;;;;;4981909;28;20189;-57
2022/12/02 05:45:46;;;;;;;28.13;18.27;;;3.80;1.00;;;;;;4983316;28;20566;-55
2022/12/02 05:48:14;;;;;;;28.83;19.40;;;3.80;1.00;;;;;;4986789;28;20496;-57
2022/12/02 05:50:41;;;;;;;23.80;16.73;;;3.80;1.00;;;;;;4987425;28;20476;-56
2022/12/02 05:53:20;;;;;;;27.87;18.37;;;3.80;1.00;;;;;;4990190;28;20502;-57
2022/12/02 05:55:46;;;;;;;28.47;17.87;;;3.80;1.00;;;;;;4982642;28;20775;-55
2022/12/02 05:58:13;;;;;;;30.00;18.97;;;3.80;1.00;;;;;;4984719;28;20502;-56
2022/12/02 06:00:39;;;;;;;31.10;18.60;;;3.80;1.00;;;;;;4992801;28;21087;-57
2022/12/02 06:03:13;;;;;;;28.83;17.47;;;3.90;1.00;;;;;;4989711;28;20551;-56
2022/12/02 06:05:42;;;;;;;29.87;18.20;;;3.90;1.00;;;;;;4987577;28;20207;-56
2022/12/02 06:08:24;;;;;;;29.43;19.63;;;3.80;1.00;;;;;;4985476;28;20458;-57
2022/12/02 06:11:00;;;;;;;30.60;20.30;;;3.80;1.00;;;;;;4982497;28;20531;-56
2022/12/02 06:13:27;;;;;;;30.03;18.63;;;3.90;1.00;;;;;;4987696;28;20995;-56
2022/12/02 06:15:54;;;;;;;27.07;17.00;;;3.90;1.00;;;;;;4985910;28;20444;-57
2022/12/02 06:18:28;;;;;;;31.67;19.53;;;3.80;1.00;;;;;;4986413;28;20562;-56
2022/12/02 06:20:56;;;;;;;30.30;17.80;;;3.80;1.00;;;;;;4987412;28;20455;-57
2022/12/02 06:23:24;;;;;;;30.40;18.73;;;3.80;1.00;;;;;;4988459;28;20814;-56
2022/12/02 06:25:52;;;;;;;27.00;17.70;;;3.80;1.00;;;;;;4988374;28;20451;-57
2022/12/02 06:28:45;;;;;;;24.00;16.43;;;3.80;1.00;;;;;;4985614;28;20452;-57
2022/12/02 06:31:17;;;;;;;24.70;17.43;;;3.80;1.00;;;;;;4984911;28;20511;-57
2022/12/02 06:33:46;;;;;;;28.50;17.30;;;3.90;1.00;;;;;;4989200;28;20490;-57
2022/12/02 06:36:21;;;;;;;28.70;18.57;;;3.90;1.00;;;;;;4986081;28;20470;-57
2022/12/02 06:38:50;;;;;;;28.73;19.17;;;3.90;1.00;;;;;;4994100;28;21231;-57
2022/12/02 06:41:25;;;;;;;28.93;18.70;;;3.90;1.00;;;;;;4988873;28;20461;-56
2022/12/02 06:46:42;;;;;;;25.93;17.93;;;4.00;1.00;;;;;;4987823;28;20531;-56
2022/12/02 06:49:32;;;;;;;29.20;19.10;;;4.00;1.00;;;;;;4987064;28;20956;-56
2022/12/02 06:52:04;;;;;;;29.10;18.27;;;4.00;1.00;;;;;;4986321;28;20223;-57
2022/12/02 06:54:31;;;;;;;32.20;19.13;;;4.00;1.00;;;;;;4986952;28;20932;-57
2022/12/02 06:56:59;;;;;;;26.83;17.90;;;4.00;1.00;;;;;;4984751;28;20463;-56
2022/12/02 06:59:26;;;;;;;26.20;17.90;;;4.00;1.00;;;;;;4984119;28;20882;-57
2022/12/02 07:01:54;;;;;;;25.33;17.90;;;4.10;1.00;;;;;;4982897;28;20527;-57
2022/12/02 07:04:48;;;;;;;31.43;17.60;;;4.00;1.00;;;;;;4988140;28;20448;-57
2022/12/02 07:07:18;;;;;;;27.13;17.50;;;4.00;1.00;;;;;;4987318;28;20578;-57
2022/12/02 07:09:47;;;;;;;27.33;17.77;;;4.00;1.00;;;;;;4988074;28;20446;-56
2022/12/02 07:12:36;;;;;;;26.87;17.80;;;4.10;1.00;;;;;;4987620;28;20459;-57
2022/12/02 07:15:18;;;;;;;27.20;18.20;;;4.00;1.00;;;;;;4984327;28;20422;-57
2022/12/02 07:17:44;;;;;;;27.37;17.43;;;4.00;1.00;;;;;;4985841;28;20478;-57
2022/12/02 07:20:33;;;;;;;24.33;18.33;;;4.00;1.00;;;;;;4988034;28;20448;-57
2022/12/02 07:23:04;;;;;;;28.60;20.10;;;4.10;1.00;;;;;;4988823;28;20331;-56
2022/12/02 07:25:43;;;;;;;28.20;17.00;;;4.00;1.00;;;;;;4987151;28;20451;-58
2022/12/02 07:28:32;;;;;;;29.67;20.53;;;4.10;1.00;;;;;;4990035;28;20439;-58
2022/12/02 07:31:29;;;;;;;30.67;20.37;;;4.00;1.00;;;;;;4989333;28;20446;-56
2022/12/02 07:33:55;;;;;;;37.23;20.80;;;4.20;1.00;;;;;;4988029;28;21107;-57
2022/12/02 07:36:20;;;;;;;32.50;20.80;;;4.20;1.00;;;;;;4989783;28;20424;-56
2022/12/02 07:38:46;;;;;;;35.87;20.37;;;4.20;1.00;;;;;;4989706;28;20221;-57
2022/12/02 07:41:14;;;;;;;30.07;20.77;;;4.20;1.00;;;;;;4989602;28;20644;-58
2022/12/02 07:43:40;;;;;;;32.03;21.50;;;4.20;1.00;;;;;;4989933;28;20188;-57
2022/12/02 07:46:06;;;;;;;33.80;21.93;;;4.10;1.00;;;;;;4996235;28;20471;-57
2022/12/02 07:48:31;;;;;;;31.20;19.67;;;4.10;1.00;;;;;;4997050;28;20223;-57
2022/12/02 07:50:57;;;;;;;32.40;20.80;;;4.10;1.00;;;;;;4989267;28;20193;-57
2022/12/02 07:53:22;;;;;;;35.80;21.63;;;4.10;1.00;;;;;;4989278;28;20196;-57
2022/12/02 07:55:48;;;;;;;36.10;24.00;;;4.00;1.00;;;;;;4989044;28;20219;-57
2022/12/02 07:58:14;;;;;;;38.47;23.00;;;4.00;1.00;;;;;;4989523;28;20230;-57
2022/12/02 08:00:39;;;;;;;31.80;21.10;;;4.10;1.00;;;;;;4989573;28;20190;-57
2022/12/02 08:03:05;;;;;;;34.87;21.67;;;4.10;1.00;;;;;;4989612;28;20188;-57
2022/12/02 08:05:30;;;;;;;43.27;25.07;;;4.10;1.00;;;;;;4989072;28;20244;-58
2022/12/02 08:07:56;;;;;;;34.43;20.17;;;4.10;1.00;;;;;;4988050;28;20204;-56
2022/12/02 08:10:22;;;;;;;39.97;24.90;;;4.10;1.00;;;;;;4964959;28;20192;-57
2022/12/02 08:12:47;;;;;;;34.63;20.67;;;4.00;1.00;;;;;;4989629;28;20636;-56
2022/12/02 08:15:14;;;;;;;38.10;22.17;;;4.00;1.00;;;;;;5008656;28;20193;-57
2022/12/02 08:17:41;;;;;;;37.53;23.07;;;3.90;1.00;;;;;;5008933;28;20193;-56
2022/12/02 08:20:08;;;;;;;46.43;23.47;;;4.00;1.00;;;;;;4991193;28;20948;-57
2022/12/02 08:22:34;;;;;;;42.27;26.20;;;4.00;1.00;;;;;;5009323;28;20446;-57
2022/12/02 08:25:01;;;;;;;42.43;23.17;;;5.10;1.00;;;;;;5009732;28;20443;-57
2022/12/02 08:27:26;;;;;;;38.67;23.40;;;4.00;1.00;;;;;;4991215;28;20280;-57
2022/12/02 08:29:52;;;;;;;35.87;23.53;;;3.90;1.00;;;;;;4992732;28;20535;-56
2022/12/02 08:32:19;;;;;;;46.90;25.93;;;3.80;1.00;;;;;;4992887;28;20193;-57
2022/12/02 08:34:45;;;;;;;40.00;23.90;;;3.90;1.00;;;;;;4989073;28;20189;-57
2022/12/02 08:37:11;;;;;;;37.97;24.07;;;3.80;1.00;;;;;;4990933;28;20445;-57
2022/12/02 08:39:37;;;;;;;39.43;23.13;;;3.90;1.00;;;;;;4992619;28;20485;-58
2022/12/02 08:42:03;;;;;;;36.77;22.47;;;3.90;1.00;;;;;;4992517;28;20440;-57
2022/12/02 08:44:29;;;;;;;38.03;21.73;;;3.90;1.00;;;;;;4991957;28;20444;-56
2022/12/02 08:46:55;;;;;;;37.23;20.87;;;4.00;1.00;;;;;;4992626;28;20479;-56
2022/12/02 08:49:21;;;;;;;31.70;20.33;;;3.90;1.00;;;;;;4992481;28;20614;-56
2022/12/02 08:51:46;;;;;;;32.53;19.93;;;4.00;1.00;;;;;;4990300;28;20631;-57
2022/12/02 08:54:14;;;;;;;35.53;21.07;;;4.00;1.00;;;;;;4991893;28;20539;-57
2022/12/02 08:56:40;;;;;;;32.47;20.67;;;4.10;1.00;;;;;;4992377;28;20190;-56
2022/12/02 08:59:06;;;;;;;34.17;22.07;;;4.20;1.00;;;;;;4992671;28;21009;-57
2022/12/02 09:01:31;;;;;;;31.83;19.03;;;4.20;1.00;;;;;;4992330;28;20436;-57
2022/12/02 09:03:57;;;;;;;30.83;20.13;;;4.30;1.00;;;;;;4991935;28;20181;-57
2022/12/02 09:06:22;;;;;;;35.17;20.30;;;4.40;1.00;;;;;;4992276;28;20194;-56
2022/12/02 09:08:48;;;;;;;34.43;21.73;;;4.30;1.00;;;;;;4990998;28;20271;-57
2022/12/02 09:11:14;;;;;;;32.57;18.83;;;4.30;1.00;;;;;;4992079;28;20180;-57
2022/12/02 09:13:40;;;;;;;28.40;18.30;;;4.20;1.00;;;;;;4992277;28;20236;-57
2022/12/02 09:16:05;;;;;;;35.37;20.83;;;4.30;1.00;;;;;;4992110;28;20444;-57
2022/12/02 09:18:31;;;;;;;29.47;18.80;;;4.40;1.00;;;;;;4990116;28;20220;-57
2022/12/02 09:20:57;;;;;;;31.23;17.47;;;4.40;1.00;;;;;;4992052;28;20190;-57
2022/12/02 09:23:22;;;;;;;28.13;16.87;;;4.30;1.00;;;;;;4991972;28;20222;-57
2022/12/02 09:25:48;;;;;;;34.20;21.13;;;4.10;1.00;;;;;;4989230;28;20181;-58
2022/12/02 09:28:13;;;;;;;30.17;19.50;;;4.00;1.00;;;;;;4991857;28;20191;-57
2022/12/02 09:30:39;;;;;;;27.10;17.07;;;4.00;1.00;;;;;;4990038;28;20421;-57
2022/12/02 09:33:04;;;;;;;27.97;16.50;;;4.00;1.00;;;;;;4991756;28;20195;-57
2022/12/02 09:35:30;;;;;;;28.90;18.57;;;4.00;1.00;;;;;;4991339;28;20754;-57
2022/12/02 09:37:56;;;;;;;35.40;18.30;;;4.00;1.00;;;;;;4991632;28;20196;-58
2022/12/02 09:40:21;;;;;;;24.50;13.93;;;4.00;1.00;;;;;;4991858;28;20231;-57
2022/12/02 09:42:47;;;;;;;27.93;17.10;;;3.90;1.00;;;;;;4991448;28;20209;-56
2022/12/02 09:45:14;;;;;;;31.43;19.60;;;3.90;1.00;;;;;;4990234;28;20224;-57
2022/12/02 09:47:39;;;;;;;27.80;17.60;;;3.90;1.00;;;;;;4989782;28;20978;-58
2022/12/02 09:50:06;;;;;;;29.40;18.17;;;4.00;1.00;;;;;;4991611;28;20475;-58
2022/12/02 09:52:32;;;;;;;29.53;18.93;;;4.00;1.00;;;;;;4991670;28;20792;-56
2022/12/02 09:55:00;;;;;;;28.60;17.90;;;4.00;1.00;;;;;;4989855;28;20533;-56
2022/12/02 09:57:31;;;;;;;32.43;19.97;;;4.00;1.00;;;;;;5001923;28;20242;-57
2022/12/02 09:59:58;;;;;;;31.07;18.80;;;4.00;1.00;;;;;;5008450;28;20500;-58
2022/12/02 10:02:28;;;;;;;31.67;19.30;;;4.00;1.00;;;;;;4990073;28;20419;-56
2022/12/02 10:04:56;;;;;;;34.23;20.50;;;3.90;1.00;;;;;;4991084;28;20454;-57
2022/12/02 10:07:21;;;;;;;29.80;18.53;;;3.90;1.00;;;;;;4990898;28;20801;-57
2022/12/02 10:09:47;;;;;;;31.93;19.23;;;3.80;1.00;;;;;;4991083;28;20448;-57
2022/12/02 10:12:12;;;;;;;30.77;19.30;;;3.70;1.00;;;;;;4990703;28;20208;-57
2022/12/02 10:14:38;;;;;;;31.90;21.50;;;3.70;1.00;;;;;;4991632;28;20205;-57
2022/12/02 10:17:19;;;;;;;25.90;15.77;;;3.80;1.00;;;;;;4990700;28;20246;-56
2022/12/02 10:19:46;;;;;;;31.47;19.70;;;3.90;1.00;;;;;;4990691;28;20875;-57
2022/12/02 10:22:17;;;;;;;28.57;19.23;;;3.90;1.00;;;;;;4990943;28;20519;-56
2022/12/02 10:24:44;;;;;;;33.80;19.97;;;3.90;1.00;;;;;;4988442;28;20451;-56
2022/12/02 10:27:25;;;;;;;32.97;20.90;;;3.90;1.00;;;;;;4992544;28;20460;-56
2022/12/02 10:29:51;;;;;;;24.40;17.33;;;4.10;1.00;;;;;;4990366;28;20485;-57
2022/12/02 10:32:27;;;;;;;32.70;18.07;;;4.20;1.00;;;;;;4990487;28;20448;-57
2022/12/02 10:35:10;;;;;;;28.77;18.07;;;4.20;1.00;;;;;;4987057;28;20203;-57
2022/12/02 10:37:37;;;;;;;29.60;17.60;;;4.20;1.00;;;;;;4990430;28;20420;-58
2022/12/02 10:40:08;;;;;;;25.20;15.83;;;4.20;1.00;;;;;;4985766;28;20524;-56
2022/12/02 10:42:34;;;;;;;31.73;18.17;;;4.20;1.00;;;;;;4989767;28;20426;-57
2022/12/02 10:45:23;;;;;;;24.30;15.90;;;4.20;1.00;;;;;;4988825;28;20459;-56
2022/12/02 10:48:00;;;;;;;28.50;17.70;;;4.10;1.00;;;;;;4987587;28;20225;-58
2022/12/02 10:50:26;;;;;;;29.43;19.63;;;4.10;1.00;;;;;;4988335;28;21075;-56
2022/12/02 10:52:56;;;;;;;30.20;18.60;;;4.00;1.00;;;;;;4984841;28;20443;-56
2022/12/02 10:55:22;;;;;;;30.93;15.53;;;4.00;1.00;;;;;;4989576;28;20655;-57
2022/12/02 10:57:49;;;;;;;27.13;17.50;;;3.90;1.00;;;;;;4983283;28;20518;-57
2022/12/02 11:00:19;;;;;;;25.10;16.60;;;3.90;1.00;;;;;;4986561;28;20449;-57
2022/12/02 11:02:53;;;;;;;30.07;18.33;;;4.00;1.00;;;;;;4988002;28;20539;-57
2022/12/02 11:05:25;;;;;;;32.00;20.57;;;4.10;1.00;;;;;;4989703;28;20531;-58
2022/12/02 11:07:57;;;;;;;32.37;19.90;;;4.10;1.00;;;;;;4997260;28;20440;-57
2022/12/02 11:10:26;;;;;;;28.03;18.20;;;4.20;1.00;;;;;;4984741;28;21015;-57
2022/12/02 11:12:52;;;;;;;29.57;18.43;;;4.30;1.00;;;;;;4984302;28;22298;-59
2022/12/02 11:15:39;;;;;;;30.00;19.83;;;4.30;1.00;;;;;;4988486;28;20463;-57
2022/12/02 11:18:07;;;;;;;27.53;17.87;;;4.40;1.00;;;;;;4984128;28;20193;-57
2022/12/02 11:20:46;;;;;;;27.37;17.23;;;4.50;1.00;;;;;;4989975;28;20443;-58
2022/12/02 11:23:24;;;;;;;26.20;17.00;;;4.60;1.00;;;;;;4985384;28;20443;-58
2022/12/02 11:25:54;;;;;;;26.27;17.97;;;4.60;1.00;;;;;;4991199;28;20464;-57
2022/12/02 11:28:28;;;;;;;27.30;17.70;;;4.70;1.00;;;;;;4987529;28;20467;-57
2022/12/02 11:31:09;;;;;;;25.93;17.97;;;4.70;1.00;;;;;;4989526;28;20960;-58
2022/12/02 11:33:50;;;;;;;26.93;16.53;;;4.70;1.00;;;;;;4997746;28;21014;-58
2022/12/02 11:36:22;;;;;;;24.00;16.67;;;4.60;1.00;;;;;;4989143;28;20441;-57
2022/12/02 11:38:51;;;;;;;25.53;17.53;;;4.60;1.00;;;;;;4987501;28;20475;-58
2022/12/02 11:41:21;;;;;;;29.67;17.93;;;4.70;1.00;;;;;;4986485;28;20546;-57
2022/12/02 11:43:47;;;;;;;27.53;17.17;;;4.70;1.00;;;;;;4988293;28;20446;-58
2022/12/02 11:46:18;;;;;;;26.90;18.20;;;4.80;1.00;;;;;;4988044;28;20551;-57
2022/12/02 11:48:46;;;;;;;28.93;15.23;;;4.80;1.00;;;;;;4988811;28;20665;-57
2022/12/02 11:51:27;;;;;;;28.30;17.60;;;4.60;1.00;;;;;;4986732;28;20837;-58
2022/12/02 11:53:53;;;;;;;26.73;16.73;;;4.30;1.00;;;;;;4993001;28;20449;-58
2022/12/02 11:56:19;;;;;;;27.90;17.27;;;4.30;1.00;;;;;;4991141;28;20447;-59
2022/12/02 11:58:44;;;;;;;29.00;17.90;;;4.20;1.00;;;;;;4994115;28;20320;-56
2022/12/02 12:01:14;;;;;;;27.47;16.57;;;4.10;1.00;;;;;;4987277;28;20194;-58
2022/12/02 12:03:42;;;;;;;29.90;18.00;;;4.00;1.00;;;;;;4994802;28;20184;-56
2022/12/02 12:06:17;;;;;;;26.20;16.60;;;4.10;1.00;;;;;;4993318;28;20451;-57
2022/12/02 12:08:47;;;;;;;26.87;18.07;;;4.00;1.00;;;;;;4996337;28;20418;-56
2022/12/02 12:11:21;;;;;;;28.17;18.63;;;4.10;1.00;;;;;;4989615;28;20448;-56
2022/12/02 12:13:59;;;;;;;32.53;19.10;;;4.20;1.00;;;;;;4993109;28;20997;-56
2022/12/02 12:16:25;;;;;;;29.50;19.00;;;4.30;1.00;;;;;;4991871;28;20452;-59
2022/12/02 12:18:52;;;;;;;29.70;18.33;;;4.30;1.00;;;;;;4990456;28;20478;-58
2022/12/02 12:21:30;;;;;;;32.07;17.10;;;4.20;1.00;;;;;;4991822;28;20921;-58
2022/12/02 12:24:24;;;;;;;32.43;18.13;;;4.10;1.00;;;;;;4993738;28;20518;-57
2022/12/02 12:27:03;;;;;;;33.40;18.87;;;4.10;1.00;;;;;;4989210;28;20538;-57
2022/12/02 12:29:37;;;;;;;32.47;19.50;;;4.00;1.00;;;;;;4992448;28;20731;-56
2022/12/02 12:32:03;;;;;;;32.63;17.10;;;4.00;1.00;;;;;;4989771;28;20456;-56
2022/12/02 12:34:30;;;;;;;35.57;20.03;;;4.00;1.00;;;;;;4989036;28;20491;-56
2022/12/02 12:36:56;;;;;;;36.80;22.50;;;4.00;1.00;;;;;;4991703;28;20448;-56
2022/12/02 12:39:21;;;;;;;37.53;22.17;;;4.00;1.00;;;;;;4988310;28;20485;-56
2022/12/02 12:41:47;;;;;;;28.03;15.80;;;4.00;1.00;;;;;;4993398;28;20833;-57
2022/12/02 12:44:13;;;;;;;30.83;19.27;;;4.00;1.00;;;;;;4958840;28;20189;-56
2022/12/02 12:46:39;;;;;;;32.47;19.20;;;3.90;1.00;;;;;;4992342;28;20785;-58
2022/12/02 12:49:04;;;;;;;33.80;19.57;;;4.00;1.00;;;;;;4986735;28;20212;-57
2022/12/02 12:51:30;;;;;;;35.10;21.27;;;3.90;1.00;;;;;;5000576;28;20448;-56
2022/12/02 12:53:56;;;;;;;33.97;21.00;;;4.00;1.00;;;;;;5007161;28;20203;-58
2022/12/02 12:56:21;;;;;;;36.83;21.00;;;4.20;1.00;;;;;;4994260;28;20185;-57
2022/12/02 12:58:47;;;;;;;33.80;18.53;;;4.20;1.00;;;;;;4994837;28;20256;-57
2022/12/02 13:01:12;;;;;;;33.63;20.40;;;4.20;1.00;;;;;;4993766;28;20621;-57